Time;durP1;ratioP1;P1;durP2;ratioP2;P2;SDS_P1;SDS_P2;PMS_P1;PMS_P2;Temp;Humidity;BMP_temperature;BMP_pressure;BME280_temperature;BME280_humidity;BME280_pressure;Samples;Min_cycle;Max_cycle;Signal;HPM_P1;HPM_P2
2021/12/20 00:00:23;;;;;;;50.90;20.05;;;;;;;;;;5032277;28;20132;-71
2021/12/20 00:02:49;;;;;;;50.90;18.90;;;;;;;;;;5050585;28;20041;-72
2021/12/20 00:05:15;;;;;;;52.22;20.67;;;;;;;;;;5050267;28;20013;-72
2021/12/20 00:07:41;;;;;;;55.92;19.73;;;;;;;;;;5050904;28;20104;-71
2021/12/20 00:10:06;;;;;;;44.55;21.48;;;;;;;;;;5049976;28;20397;-70
2021/12/20 00:12:32;;;;;;;59.63;22.92;;;;;;;;;;5032546;28;20035;-71
2021/12/20 00:14:57;;;;;;;54.40;22.63;;;;;;;;;;5050477;28;20064;-71
2021/12/20 00:17:22;;;;;;;53.58;23.23;;;;;;;;;;5050224;28;20435;-71
2021/12/20 00:19:47;;;;;;;72.18;24.77;;;;;;;;;;5050060;28;20040;-71
2021/12/20 00:22:13;;;;;;;53.60;23.63;;;;;;;;;;5049743;28;20104;-71
2021/12/20 00:24:38;;;;;;;57.55;24.33;;;;;;;;;;5050006;28;20088;-71
2021/12/20 00:27:07;;;;;;;61.88;23.92;;;;;;;;;;5043754;28;20075;-71
2021/12/20 00:29:32;;;;;;;52.63;22.50;;;;;;;;;;5030579;28;20102;-71
2021/12/20 00:31:57;;;;;;;52.60;22.60;;;;;;;;;;5035395;28;20474;-71
2021/12/20 00:34:22;;;;;;;54.55;24.45;;;;;;;;;;5047259;28;20271;-70
2021/12/20 00:36:56;;;;;;;58.10;24.77;;;;;;;;;;5045661;28;20021;-71
2021/12/20 00:42:05;;;;;;;52.17;21.08;;;;;;;;;;5047045;28;20086;-72
2021/12/20 00:44:30;;;;;;;47.75;20.92;;;;;;;;;;5048025;28;20025;-71
2021/12/20 00:46:56;;;;;;;57.20;21.33;;;;;;;;;;5048500;28;20024;-72
2021/12/20 00:49:21;;;;;;;52.60;22.90;;;;;;;;;;5052313;28;20722;-71
2021/12/20 00:51:46;;;;;;;54.90;22.23;;;;;;;;;;5051652;28;20318;-72
2021/12/20 00:54:11;;;;;;;58.05;24.00;;;;;;;;;;5049035;28;20823;-71
2021/12/20 00:56:36;;;;;;;50.33;19.77;;;;;;;;;;5040057;28;20029;-71
2021/12/20 00:59:01;;;;;;;46.27;20.23;;;;;;;;;;5051748;28;20336;-71
2021/12/20 01:01:27;;;;;;;49.42;21.35;;;;;;;;;;5051597;28;20260;-71
2021/12/20 01:03:53;;;;;;;50.03;20.95;;;;;;;;;;5051915;28;20025;-71
2021/12/20 01:06:18;;;;;;;47.25;19.48;;;;;;;;;;5051926;28;20027;-71
2021/12/20 01:08:45;;;;;;;49.20;19.23;;;;;;;;;;5051998;28;20025;-71
2021/12/20 01:11:10;;;;;;;46.40;19.52;;;;;;;;;;5033395;28;20025;-70
2021/12/20 01:13:40;;;;;;;44.83;18.50;;;;;;;;;;5051609;28;20086;-70
2021/12/20 01:16:07;;;;;;;49.00;19.92;;;;;;;;;;5051624;28;20048;-71
2021/12/20 01:18:32;;;;;;;51.72;18.80;;;;;;;;;;5051918;28;20017;-71
2021/12/20 01:20:57;;;;;;;48.42;19.48;;;;;;;;;;5051300;28;20441;-72
2021/12/20 01:23:22;;;;;;;47.60;18.77;;;;;;;;;;5051932;28;20074;-71
2021/12/20 01:25:47;;;;;;;56.67;19.75;;;;;;;;;;5051536;28;20053;-71
2021/12/20 01:28:13;;;;;;;50.28;19.33;;;;;;;;;;5051177;28;20119;-71
2021/12/20 01:30:39;;;;;;;53.13;18.52;;;;;;;;;;5048575;28;20381;-71
2021/12/20 01:33:08;;;;;;;44.60;18.27;;;;;;;;;;5031350;28;20408;-70
2021/12/20 01:35:33;;;;;;;46.28;18.08;;;;;;;;;;5031636;28;20040;-72
2021/12/20 01:37:58;;;;;;;39.88;17.08;;;;;;;;;;5031259;28;20481;-71
2021/12/20 01:40:24;;;;;;;44.80;19.10;;;;;;;;;;5030772;28;20022;-71
2021/12/20 01:42:52;;;;;;;44.72;17.42;;;;;;;;;;5039020;28;20032;-70
2021/12/20 01:45:19;;;;;;;57.13;17.23;;;;;;;;;;5050980;28;20204;-71
2021/12/20 01:47:48;;;;;;;49.92;17.88;;;;;;;;;;5051106;28;20021;-71
2021/12/20 01:50:36;;;;;;;49.43;17.20;;;;;;;;;;5050556;28;20028;-71
2021/12/20 01:53:01;;;;;;;39.47;15.50;;;;;;;;;;5051200;28;20033;-71
2021/12/20 01:55:26;;;;;;;43.55;15.35;;;;;;;;;;5051698;28;20534;-72
2021/12/20 01:57:52;;;;;;;38.53;16.73;;;;;;;;;;5050791;28;20048;-71
2021/12/20 02:00:19;;;;;;;37.35;14.52;;;;;;;;;;5050769;28;20440;-72
2021/12/20 02:02:44;;;;;;;35.97;14.95;;;;;;;;;;5051057;28;20078;-71
2021/12/20 02:05:24;;;;;;;40.95;15.93;;;;;;;;;;5050626;28;20032;-71
2021/12/20 02:10:14;;;;;;;44.65;14.75;;;;;;;;;;5050268;28;20552;-71
2021/12/20 02:12:40;;;;;;;35.53;14.48;;;;;;;;;;5050369;28;20036;-71
2021/12/20 02:15:05;;;;;;;46.33;15.15;;;;;;;;;;5042174;28;20021;-71
2021/12/20 02:17:31;;;;;;;41.28;13.93;;;;;;;;;;5046098;28;20023;-70
2021/12/20 02:20:00;;;;;;;33.13;13.20;;;;;;;;;;5050346;28;20025;-71
2021/12/20 02:22:25;;;;;;;42.30;14.20;;;;;;;;;;5050502;28;20013;-68
2021/12/20 02:24:50;;;;;;;44.45;13.88;;;;;;;;;;5050544;28;20071;-70
2021/12/20 02:27:16;;;;;;;30.35;12.50;;;;;;;;;;5050456;28;20033;-70
2021/12/20 02:29:59;;;;;;;40.63;12.85;;;;;;;;;;5049807;28;20036;-70
2021/12/20 02:37:53;;;;;;;37.65;12.77;;;;;;;;;;5052124;28;20036;-69
2021/12/20 02:40:20;;;;;;;35.58;12.55;;;;;;;;;;5051610;28;20025;-71
2021/12/20 02:42:47;;;;;;;34.15;11.50;;;;;;;;;;5051799;28;20021;-69
2021/12/20 02:45:15;;;;;;;40.58;11.13;;;;;;;;;;5051285;28;20013;-69
2021/12/20 02:47:41;;;;;;;38.75;12.50;;;;;;;;;;5036317;28;20555;-71
2021/12/20 02:50:07;;;;;;;34.83;12.85;;;;;;;;;;5033905;28;20484;-72
2021/12/20 02:52:32;;;;;;;33.03;11.02;;;;;;;;;;5053177;28;20028;-70
2021/12/20 02:54:57;;;;;;;33.97;10.97;;;;;;;;;;5051518;28;20037;-68
2021/12/20 02:57:23;;;;;;;42.83;12.60;;;;;;;;;;5051565;28;20282;-70
2021/12/20 02:59:48;;;;;;;39.10;12.82;;;;;;;;;;5051559;28;20389;-68
2021/12/20 03:02:13;;;;;;;35.55;11.88;;;;;;;;;;5032825;28;20083;-69
2021/12/20 03:04:39;;;;;;;32.97;10.32;;;;;;;;;;5051229;28;20017;-69
2021/12/20 03:07:06;;;;;;;32.97;10.18;;;;;;;;;;5051297;28;20627;-69
2021/12/20 03:09:35;;;;;;;40.92;10.88;;;;;;;;;;5050753;28;20013;-68
2021/12/20 03:12:02;;;;;;;35.15;10.45;;;;;;;;;;5050786;28;20111;-68
2021/12/20 03:14:36;;;;;;;30.15;11.10;;;;;;;;;;5051132;28;20028;-69
2021/12/20 03:17:01;;;;;;;32.72;9.43;;;;;;;;;;5051196;28;20025;-70
2021/12/20 03:19:27;;;;;;;37.08;9.40;;;;;;;;;;5050325;28;20083;-68
2021/12/20 03:21:54;;;;;;;38.45;8.90;;;;;;;;;;5050069;28;20032;-69
2021/12/20 03:24:19;;;;;;;25.08;7.97;;;;;;;;;;5051202;28;20025;-70
2021/12/20 03:26:45;;;;;;;43.83;7.28;;;;;;;;;;5051114;28;20021;-68
2021/12/20 03:29:10;;;;;;;20.25;6.22;;;;;;;;;;5050656;28;20067;-72
2021/12/20 03:31:35;;;;;;;27.35;5.65;;;;;;;;;;5050397;28;20028;-69
2021/12/20 03:34:01;;;;;;;33.27;5.60;;;;;;;;;;5049710;28;20029;-69
2021/12/20 03:36:26;;;;;;;23.58;5.43;;;;;;;;;;5050390;28;20735;-69
2021/12/20 03:38:51;;;;;;;27.52;5.45;;;;;;;;;;5050633;28;20020;-69
2021/12/20 03:41:17;;;;;;;30.95;5.55;;;;;;;;;;5049902;28;20028;-69
2021/12/20 03:43:42;;;;;;;21.88;4.53;;;;;;;;;;5050263;28;20465;-72
2021/12/20 03:46:07;;;;;;;34.53;5.90;;;;;;;;;;5050311;28;20029;-69
2021/12/20 03:48:33;;;;;;;37.47;5.22;;;;;;;;;;5050728;28;20370;-71
2021/12/20 03:51:01;;;;;;;25.02;4.45;;;;;;;;;;5049411;28;20025;-69
2021/12/20 03:53:27;;;;;;;22.05;3.88;;;;;;;;;;5050275;28;20021;-69
2021/12/20 03:55:52;;;;;;;29.85;4.10;;;;;;;;;;5050225;28;20021;-69
2021/12/20 03:58:17;;;;;;;32.92;4.50;;;;;;;;;;5050739;28;20016;-70
2021/12/20 04:00:43;;;;;;;34.25;4.07;;;;;;;;;;5049220;28;20607;-69
2021/12/20 04:03:12;;;;;;;29.08;5.40;;;;;;;;;;5050041;28;20024;-69
2021/12/20 04:05:38;;;;;;;20.13;3.72;;;;;;;;;;5050201;28;20021;-69
2021/12/20 04:08:04;;;;;;;20.00;3.35;;;;;;;;;;5049612;28;20020;-69
2021/12/20 04:10:29;;;;;;;34.63;3.83;;;;;;;;;;5049507;28;20225;-70
2021/12/20 04:12:54;;;;;;;26.08;4.90;;;;;;;;;;5050365;28;20635;-69
2021/12/20 04:15:19;;;;;;;27.98;3.90;;;;;;;;;;5050150;28;20107;-69
2021/12/20 04:17:45;;;;;;;25.98;4.32;;;;;;;;;;5049686;28;20472;-70
2021/12/20 04:20:10;;;;;;;22.25;5.50;;;;;;;;;;5049512;28;20032;-69
2021/12/20 04:22:35;;;;;;;27.27;4.78;;;;;;;;;;5049296;28;20469;-69
2021/12/20 04:25:00;;;;;;;22.70;5.32;;;;;;;;;;5050163;28;20037;-69
2021/12/20 04:27:25;;;;;;;28.80;4.70;;;;;;;;;;5049905;28;20057;-71
2021/12/20 04:29:54;;;;;;;26.00;6.10;;;;;;;;;;5049930;28;20283;-69
2021/12/20 04:32:19;;;;;;;31.45;5.07;;;;;;;;;;5049379;28;20496;-69
2021/12/20 04:34:44;;;;;;;29.33;5.25;;;;;;;;;;5050418;28;20029;-70
2021/12/20 04:37:10;;;;;;;21.23;4.25;;;;;;;;;;5050067;28;20516;-69
2021/12/20 04:39:36;;;;;;;32.53;5.10;;;;;;;;;;5050142;28;20161;-69
2021/12/20 04:42:01;;;;;;;21.52;4.65;;;;;;;;;;5049690;28;20060;-69
2021/12/20 04:44:26;;;;;;;29.23;4.80;;;;;;;;;;5050116;28;20025;-70
2021/12/20 04:46:52;;;;;;;29.20;4.43;;;;;;;;;;5049510;28;20017;-69
2021/12/20 04:49:17;;;;;;;25.70;5.28;;;;;;;;;;5049957;28;20032;-70
2021/12/20 04:51:42;;;;;;;34.55;5.25;;;;;;;;;;5049430;28;20025;-69
2021/12/20 04:54:07;;;;;;;21.13;4.53;;;;;;;;;;5049930;28;20017;-71
2021/12/20 04:56:33;;;;;;;28.75;5.07;;;;;;;;;;5049948;28;20044;-70
2021/12/20 04:58:58;;;;;;;21.58;4.80;;;;;;;;;;5049487;28;20074;-70
2021/12/20 05:01:23;;;;;;;32.30;5.97;;;;;;;;;;5049562;28;20504;-69
2021/12/20 05:03:48;;;;;;;25.13;4.75;;;;;;;;;;5049606;28;20469;-69
2021/12/20 05:06:14;;;;;;;26.55;4.57;;;;;;;;;;5031735;28;20488;-70
2021/12/20 05:08:47;;;;;;;19.48;4.28;;;;;;;;;;5049661;28;20040;-70
2021/12/20 05:11:13;;;;;;;22.25;4.88;;;;;;;;;;5049438;28;20394;-70
2021/12/20 05:13:38;;;;;;;30.88;5.53;;;;;;;;;;5049643;28;20025;-69
2021/12/20 05:16:03;;;;;;;18.05;4.70;;;;;;;;;;5048103;28;20031;-70
2021/12/20 05:18:28;;;;;;;24.98;4.70;;;;;;;;;;5050280;28;20071;-69
2021/12/20 05:20:54;;;;;;;27.05;4.82;;;;;;;;;;5048843;28;20172;-71
2021/12/20 05:23:19;;;;;;;39.40;6.05;;;;;;;;;;5049851;28;20039;-69
2021/12/20 05:25:44;;;;;;;25.38;6.43;;;;;;;;;;5049506;28;20025;-69
2021/12/20 05:28:09;;;;;;;27.40;5.30;;;;;;;;;;5049882;28;20032;-69
2021/12/20 05:30:35;;;;;;;29.08;5.43;;;;;;;;;;5048924;28;20274;-69
2021/12/20 05:33:01;;;;;;;39.65;4.85;;;;;;;;;;5032349;28;20128;-71
2021/12/20 05:35:27;;;;;;;31.35;8.07;;;;;;;;;;5053140;28;20115;-69
2021/12/20 05:37:52;;;;;;;28.40;4.40;;;;;;;;;;5052980;28;20025;-70
2021/12/20 05:40:17;;;;;;;29.67;5.35;;;;;;;;;;5052189;28;20584;-70
2021/12/20 05:42:45;;;;;;;16.10;4.95;;;;;;;;;;5052902;28;20495;-70
2021/12/20 05:45:10;;;;;;;35.25;5.78;;;;;;;;;;5053175;28;20017;-70
2021/12/20 05:47:35;;;;;;;30.73;5.63;;;;;;;;;;5052393;28;20031;-70
2021/12/20 05:50:00;;;;;;;26.83;5.60;;;;;;;;;;5052247;28;20536;-69
2021/12/20 05:52:26;;;;;;;26.90;4.32;;;;;;;;;;5051300;28;20029;-70
2021/12/20 05:54:51;;;;;;;20.83;5.22;;;;;;;;;;5051944;28;20771;-70
2021/12/20 05:57:16;;;;;;;28.13;4.65;;;;;;;;;;5052040;28;20025;-70
2021/12/20 05:59:41;;;;;;;24.53;5.13;;;;;;;;;;5052555;28;20044;-70
2021/12/20 06:02:06;;;;;;;25.48;4.78;;;;;;;;;;5052327;28;20755;-70
2021/12/20 06:04:31;;;;;;;23.38;4.38;;;;;;;;;;5051952;28;20477;-70
2021/12/20 06:06:57;;;;;;;30.95;4.75;;;;;;;;;;5051931;28;20017;-70
2021/12/20 06:09:22;;;;;;;21.55;6.07;;;;;;;;;;5052784;28;20063;-70
2021/12/20 06:11:47;;;;;;;34.90;5.38;;;;;;;;;;5051758;28;20029;-69
2021/12/20 06:14:12;;;;;;;27.65;6.13;;;;;;;;;;5051726;28;20032;-70
2021/12/20 06:16:37;;;;;;;30.95;5.93;;;;;;;;;;5051621;28;20350;-67
2021/12/20 06:19:03;;;;;;;26.10;4.95;;;;;;;;;;5052267;28;20017;-70
2021/12/20 06:21:28;;;;;;;30.50;4.63;;;;;;;;;;5051230;28;20065;-70
2021/12/20 06:23:53;;;;;;;27.77;4.43;;;;;;;;;;5051181;28;20029;-70
2021/12/20 06:26:23;;;;;;;22.38;4.32;;;;;;;;;;5051770;28;20017;-70
2021/12/20 06:28:49;;;;;;;18.92;3.90;;;;;;;;;;5050675;28;20025;-70
2021/12/20 06:31:14;;;;;;;33.47;4.85;;;;;;;;;;5051438;28;20028;-70
2021/12/20 06:33:39;;;;;;;26.40;4.22;;;;;;;;;;5051388;28;20028;-70
2021/12/20 06:36:04;;;;;;;20.00;4.07;;;;;;;;;;5050200;28;20017;-70
2021/12/20 06:38:31;;;;;;;25.38;4.35;;;;;;;;;;5049220;28;20268;-70
2021/12/20 06:40:57;;;;;;;31.23;4.43;;;;;;;;;;5051083;28;20477;-70
2021/12/20 06:43:22;;;;;;;26.97;4.00;;;;;;;;;;5051526;28;20029;-70
2021/12/20 06:45:47;;;;;;;23.08;4.53;;;;;;;;;;5050473;28;20284;-69
2021/12/20 06:48:13;;;;;;;31.35;4.10;;;;;;;;;;5051092;28;20025;-68
2021/12/20 06:50:38;;;;;;;44.08;5.72;;;;;;;;;;5050865;28;20488;-75
2021/12/20 06:53:05;;;;;;;20.33;3.80;;;;;;;;;;5051351;28;20043;-70
2021/12/20 06:55:31;;;;;;;27.75;4.53;;;;;;;;;;5051037;28;20417;-69
2021/12/20 06:57:56;;;;;;;22.38;5.45;;;;;;;;;;5033207;28;20025;-70
2021/12/20 07:00:23;;;;;;;42.10;5.60;;;;;;;;;;5050518;28;20057;-70
2021/12/20 07:02:48;;;;;;;23.77;5.30;;;;;;;;;;5054002;28;20282;-70
2021/12/20 07:05:14;;;;;;;28.92;4.85;;;;;;;;;;5060967;28;20098;-69
2021/12/20 07:07:39;;;;;;;28.95;3.92;;;;;;;;;;5050778;28;20481;-70
2021/12/20 07:10:05;;;;;;;29.27;5.05;;;;;;;;;;5050092;28;20345;-70
2021/12/20 07:12:33;;;;;;;22.10;3.95;;;;;;;;;;5050642;28;20032;-67
2021/12/20 07:14:58;;;;;;;28.25;4.50;;;;;;;;;;5051057;28;20013;-69
2021/12/20 07:17:23;;;;;;;31.67;4.97;;;;;;;;;;5051154;28;20096;-70
2021/12/20 07:19:48;;;;;;;31.00;4.32;;;;;;;;;;5050265;28;20535;-69
2021/12/20 07:22:13;;;;;;;28.67;4.93;;;;;;;;;;5050391;28;20124;-70
2021/12/20 07:24:39;;;;;;;29.08;5.03;;;;;;;;;;5050854;28;20029;-69
2021/12/20 07:27:05;;;;;;;23.60;4.32;;;;;;;;;;5050596;28;20046;-70
2021/12/20 07:29:30;;;;;;;45.92;5.90;;;;;;;;;;5050745;28;20023;-69
2021/12/20 07:31:56;;;;;;;23.77;5.03;;;;;;;;;;5050119;28;20108;-69
2021/12/20 07:34:21;;;;;;;27.02;5.75;;;;;;;;;;5050915;28;20056;-70
2021/12/20 07:36:46;;;;;;;18.15;4.47;;;;;;;;;;5050028;28;20096;-70
2021/12/20 07:39:11;;;;;;;22.00;4.60;;;;;;;;;;5050434;28;20358;-70
2021/12/20 07:41:36;;;;;;;27.08;5.35;;;;;;;;;;5050125;28;20396;-69
2021/12/20 07:44:02;;;;;;;45.38;6.63;;;;;;;;;;5032271;28;20485;-70
2021/12/20 07:46:27;;;;;;;26.77;4.93;;;;;;;;;;5049327;28;20469;-69
2021/12/20 07:48:53;;;;;;;27.80;4.78;;;;;;;;;;5049840;28;20100;-69
2021/12/20 07:51:18;;;;;;;35.85;4.32;;;;;;;;;;5049821;28;20021;-70
2021/12/20 07:53:43;;;;;;;30.27;3.85;;;;;;;;;;5049697;28;20028;-69
2021/12/20 07:56:09;;;;;;;31.08;4.68;;;;;;;;;;5049771;28;20020;-70
2021/12/20 07:58:34;;;;;;;50.00;5.13;;;;;;;;;;5050243;28;20017;-70
2021/12/20 08:01:01;;;;;;;27.80;4.72;;;;;;;;;;5050032;28;20096;-69
2021/12/20 08:03:27;;;;;;;37.15;5.22;;;;;;;;;;5050129;28;20078;-70
2021/12/20 08:05:52;;;;;;;23.17;4.15;;;;;;;;;;5050439;28;20102;-70
2021/12/20 08:08:17;;;;;;;56.07;5.10;;;;;;;;;;5030691;28;20465;-69
2021/12/20 08:10:42;;;;;;;36.47;5.70;;;;;;;;;;5049796;28;20262;-70
2021/12/20 08:13:09;;;;;;;22.42;3.83;;;;;;;;;;5049082;28;20025;-69
2021/12/20 08:15:35;;;;;;;22.83;4.63;;;;;;;;;;5050033;28;20028;-70
2021/12/20 08:18:00;;;;;;;22.77;5.15;;;;;;;;;;5046908;28;20025;-70
2021/12/20 08:20:25;;;;;;;22.27;5.05;;;;;;;;;;5049026;28;20112;-69
2021/12/20 08:22:50;;;;;;;24.65;5.07;;;;;;;;;;5049980;28;20104;-69
2021/12/20 08:25:16;;;;;;;24.42;4.93;;;;;;;;;;5050002;28;20027;-69
2021/12/20 08:27:42;;;;;;;28.35;4.88;;;;;;;;;;5049911;28;20051;-69
2021/12/20 08:30:08;;;;;;;40.45;5.32;;;;;;;;;;5047070;28;20021;-70
2021/12/20 08:32:34;;;;;;;19.80;4.25;;;;;;;;;;5050142;28;20044;-70
2021/12/20 08:34:59;;;;;;;34.75;6.07;;;;;;;;;;5049817;28;20017;-69
2021/12/20 08:37:25;;;;;;;25.63;5.30;;;;;;;;;;5050403;28;20100;-70
2021/12/20 08:39:50;;;;;;;29.08;4.72;;;;;;;;;;5049792;28;20385;-70
2021/12/20 08:42:16;;;;;;;19.88;4.40;;;;;;;;;;5048878;28;20416;-70
2021/12/20 08:44:41;;;;;;;23.83;4.75;;;;;;;;;;5050341;28;20024;-70
2021/12/20 08:47:06;;;;;;;28.30;4.65;;;;;;;;;;5031864;28;20090;-69
2021/12/20 08:49:32;;;;;;;30.35;4.78;;;;;;;;;;5050308;28;20013;-70
2021/12/20 08:51:57;;;;;;;26.92;4.30;;;;;;;;;;5031349;28;20024;-69
2021/12/20 08:54:24;;;;;;;25.55;4.97;;;;;;;;;;5049791;28;20032;-70
2021/12/20 08:56:50;;;;;;;29.20;4.40;;;;;;;;;;5031582;28;20028;-70
2021/12/20 08:59:15;;;;;;;22.83;4.53;;;;;;;;;;5049874;28;20028;-69
2021/12/20 09:01:40;;;;;;;20.40;4.80;;;;;;;;;;5049431;28;20159;-69
2021/12/20 09:04:06;;;;;;;36.47;8.00;;;;;;;;;;5049625;28;20413;-70
2021/12/20 09:06:34;;;;;;;23.17;5.28;;;;;;;;;;5050017;28;20112;-70
2021/12/20 09:09:00;;;;;;;28.15;4.70;;;;;;;;;;5052133;28;20021;-70
2021/12/20 09:11:28;;;;;;;23.38;4.78;;;;;;;;;;5052732;28;20043;-69
2021/12/20 09:13:53;;;;;;;41.75;5.65;;;;;;;;;;5053390;28;20051;-69
2021/12/20 09:16:18;;;;;;;19.92;4.55;;;;;;;;;;5053486;28;20566;-70
2021/12/20 09:18:44;;;;;;;27.98;5.03;;;;;;;;;;5053214;28;20474;-70
2021/12/20 09:21:10;;;;;;;30.90;4.90;;;;;;;;;;5052990;28;20252;-70
2021/12/20 09:23:36;;;;;;;32.55;4.10;;;;;;;;;;5046622;28;20036;-70
2021/12/20 09:26:01;;;;;;;25.30;4.45;;;;;;;;;;5050869;28;20021;-71
2021/12/20 09:28:26;;;;;;;31.90;4.68;;;;;;;;;;5051724;28;20028;-71
2021/12/20 09:30:52;;;;;;;20.80;5.13;;;;;;;;;;5050359;28;20028;-70
2021/12/20 09:33:17;;;;;;;24.25;4.57;;;;;;;;;;5051372;28;20314;-71
2021/12/20 09:35:42;;;;;;;34.17;6.47;;;;;;;;;;5051444;28;20056;-71
2021/12/20 09:38:11;;;;;;;30.75;5.40;;;;;;;;;;5051037;28;20100;-70
2021/12/20 09:40:37;;;;;;;31.95;5.30;;;;;;;;;;5050469;28;20119;-71
2021/12/20 09:43:07;;;;;;;32.10;5.53;;;;;;;;;;5050721;28;20540;-69
2021/12/20 09:45:33;;;;;;;24.70;5.15;;;;;;;;;;5050834;28;20021;-71
2021/12/20 09:47:58;;;;;;;33.55;5.40;;;;;;;;;;5050576;28;20401;-71
2021/12/20 09:50:24;;;;;;;31.25;4.63;;;;;;;;;;5050756;28;20028;-71
2021/12/20 09:52:50;;;;;;;31.98;5.85;;;;;;;;;;5047933;28;20386;-71
2021/12/20 09:55:16;;;;;;;35.08;5.97;;;;;;;;;;5052156;28;20021;-70
2021/12/20 09:57:42;;;;;;;28.33;4.78;;;;;;;;;;5048973;28;20485;-71
2021/12/20 10:00:08;;;;;;;25.00;5.10;;;;;;;;;;5046213;28;20017;-71
2021/12/20 10:02:33;;;;;;;29.27;4.85;;;;;;;;;;5055259;28;20065;-71
2021/12/20 10:04:58;;;;;;;29.03;4.97;;;;;;;;;;5053986;28;20029;-71
2021/12/20 10:07:25;;;;;;;38.00;4.97;;;;;;;;;;5054102;28;20605;-70
2021/12/20 10:09:51;;;;;;;33.05;5.38;;;;;;;;;;5049887;28;20036;-71
2021/12/20 10:12:24;;;;;;;25.20;4.22;;;;;;;;;;5049156;28;20021;-71
2021/12/20 10:15:06;;;;;;;32.00;4.00;;;;;;;;;;5039015;28;20032;-70
2021/12/20 10:17:35;;;;;;;29.50;5.68;;;;;;;;;;5048771;28;20024;-71
2021/12/20 10:20:17;;;;;;;21.88;3.92;;;;;;;;;;5048135;28;20025;-71
2021/12/20 10:22:42;;;;;;;28.42;4.55;;;;;;;;;;5052482;28;20017;-70
2021/12/20 10:25:19;;;;;;;22.50;4.97;;;;;;;;;;5034339;28;20021;-71
2021/12/20 10:27:44;;;;;;;22.23;3.83;;;;;;;;;;5052295;28;20054;-70
2021/12/20 10:30:20;;;;;;;30.17;4.73;;;;;;;;;;5051833;28;20710;-71
2021/12/20 10:32:45;;;;;;;29.83;5.05;;;;;;;;;;5051190;28;20305;-71
2021/12/20 10:35:25;;;;;;;17.42;4.50;;;;;;;;;;5052192;28;20100;-71
2021/12/20 10:37:54;;;;;;;21.30;4.55;;;;;;;;;;5052331;28;20021;-72
2021/12/20 10:40:19;;;;;;;23.55;5.13;;;;;;;;;;5033404;28;20033;-71
2021/12/20 10:42:45;;;;;;;20.98;3.97;;;;;;;;;;5034302;28;20025;-71
2021/12/20 10:45:14;;;;;;;20.40;4.25;;;;;;;;;;5051893;28;20114;-71
2021/12/20 10:47:43;;;;;;;32.45;5.28;;;;;;;;;;5051383;28;20032;-70
2021/12/20 10:50:20;;;;;;;24.90;4.93;;;;;;;;;;5051435;28;20114;-71
2021/12/20 10:52:46;;;;;;;19.02;3.80;;;;;;;;;;5051555;28;20376;-71
2021/12/20 10:55:11;;;;;;;15.48;3.53;;;;;;;;;;5051556;28;20021;-71
2021/12/20 10:57:39;;;;;;;22.55;4.20;;;;;;;;;;5050146;28;20024;-71
2021/12/20 11:00:15;;;;;;;17.73;3.50;;;;;;;;;;5019038;28;20036;-70
2021/12/20 11:05:38;;;;;;;19.90;3.63;;;;;;;;;;5051724;28;20112;-70
2021/12/20 11:11:10;;;;;;;19.08;3.13;;;;;;;;;;5031139;28;20096;-70
2021/12/20 11:13:38;;;;;;;19.77;3.13;;;;;;;;;;5031499;28;20443;-70
2021/12/20 11:16:22;;;;;;;16.80;2.90;;;;;;;;;;5022386;28;20033;-70
2021/12/20 11:19:07;;;;;;;9.52;2.17;;;;;;;;;;5051605;28;20470;-70
2021/12/20 11:21:33;;;;;;;19.80;2.83;;;;;;;;;;5054631;28;20051;-70
2021/12/20 11:23:59;;;;;;;10.10;2.30;;;;;;;;;;5051077;28;20450;-70
2021/12/20 11:26:24;;;;;;;25.42;3.38;;;;;;;;;;5043442;28;20040;-70
2021/12/20 11:28:51;;;;;;;12.30;2.27;;;;;;;;;;5056783;28;20020;-70
2021/12/20 11:31:16;;;;;;;13.73;2.85;;;;;;;;;;5053659;28;20720;-70
2021/12/20 11:33:41;;;;;;;12.48;2.50;;;;;;;;;;5033192;28;20070;-70
2021/12/20 11:36:07;;;;;;;12.48;2.97;;;;;;;;;;5051025;28;20528;-69
2021/12/20 11:38:32;;;;;;;12.35;2.47;;;;;;;;;;5033417;28;20021;-70
2021/12/20 11:41:00;;;;;;;16.73;2.55;;;;;;;;;;5036396;28;20033;-70
2021/12/20 11:43:25;;;;;;;11.57;2.30;;;;;;;;;;5062619;22;20032;-69
2021/12/20 11:45:51;;;;;;;12.10;2.75;;;;;;;;;;5032889;28;20400;-70
2021/12/20 11:48:19;;;;;;;9.00;1.67;;;;;;;;;;5019052;28;20083;-70
2021/12/20 11:50:44;;;;;;;13.05;2.40;;;;;;;;;;5026414;28;20028;-70
2021/12/20 11:53:10;;;;;;;10.18;3.25;;;;;;;;;;5040086;28;20025;-70
2021/12/20 11:55:36;;;;;;;9.85;2.53;;;;;;;;;;5030829;28;20053;-70
2021/12/20 11:58:03;;;;;;;10.10;2.03;;;;;;;;;;5029457;28;20099;-70
2021/12/20 12:00:33;;;;;;;8.15;2.20;;;;;;;;;;5030514;28;20545;-70
2021/12/20 12:03:16;;;;;;;8.50;1.77;;;;;;;;;;5031157;28;20546;-70
2021/12/20 12:05:41;;;;;;;12.10;1.40;;;;;;;;;;5013310;28;20470;-70
2021/12/20 12:08:25;;;;;;;10.18;2.22;;;;;;;;;;5030716;28;20014;-70
2021/12/20 12:10:54;;;;;;;14.52;1.75;;;;;;;;;;5030272;28;20017;-72
2021/12/20 12:13:22;;;;;;;10.05;2.45;;;;;;;;;;5029996;28;20057;-69
2021/12/20 12:15:52;;;;;;;17.92;2.22;;;;;;;;;;5036620;28;20094;-70
2021/12/20 12:18:17;;;;;;;13.35;2.05;;;;;;;;;;5033331;28;20072;-69
2021/12/20 12:20:44;;;;;;;10.32;2.00;;;;;;;;;;5013686;28;20021;-69
2021/12/20 12:23:20;;;;;;;12.35;2.00;;;;;;;;;;5011165;28;20101;-70
2021/12/20 12:25:49;;;;;;;7.82;1.20;;;;;;;;;;5010587;28;20018;-70
2021/12/20 12:28:15;;;;;;;5.65;1.67;;;;;;;;;;5013775;28;20485;-70
2021/12/20 12:30:40;;;;;;;10.95;1.60;;;;;;;;;;5030019;28;20037;-69
2021/12/20 12:33:11;;;;;;;8.52;1.67;;;;;;;;;;5029828;28;20021;-70
2021/12/20 12:35:37;;;;;;;6.32;1.55;;;;;;;;;;5030130;28;20210;-70
2021/12/20 12:38:16;;;;;;;9.37;2.10;;;;;;;;;;5027006;28;20026;-70
2021/12/20 12:40:42;;;;;;;7.50;1.20;;;;;;;;;;5028337;28;20276;-70
2021/12/20 12:43:07;;;;;;;9.50;1.48;;;;;;;;;;5030282;28;20037;-70
2021/12/20 12:45:49;;;;;;;8.25;1.45;;;;;;;;;;5033401;28;20471;-70
2021/12/20 12:48:32;;;;;;;8.48;1.05;;;;;;;;;;5033643;28;20079;-70
2021/12/20 12:51:02;;;;;;;5.97;1.48;;;;;;;;;;5033016;28;20029;-70
2021/12/20 12:53:41;;;;;;;8.27;1.60;;;;;;;;;;5033933;28;20477;-69
2021/12/20 12:56:24;;;;;;;7.07;1.50;;;;;;;;;;5033984;28;20489;-70
2021/12/20 12:59:09;;;;;;;16.60;1.30;;;;;;;;;;5033986;28;20032;-68
2021/12/20 13:01:34;;;;;;;6.85;1.10;;;;;;;;;;5032899;28;20034;-69
2021/12/20 13:03:59;;;;;;;4.68;1.50;;;;;;;;;;5033745;28;20029;-70
2021/12/20 13:06:25;;;;;;;13.15;1.75;;;;;;;;;;5032994;28;20078;-70
2021/12/20 13:08:53;;;;;;;7.45;1.40;;;;;;;;;;5033577;28;20386;-70
2021/12/20 13:11:20;;;;;;;13.10;2.50;;;;;;;;;;5033244;28;20103;-70
2021/12/20 13:13:53;;;;;;;6.88;1.50;;;;;;;;;;5033192;28;20049;-69
2021/12/20 13:16:23;;;;;;;6.68;1.30;;;;;;;;;;5033442;28;20040;-70
2021/12/20 13:18:51;;;;;;;8.30;1.15;;;;;;;;;;5025244;28;20106;-69
2021/12/20 13:21:20;;;;;;;9.13;1.27;;;;;;;;;;5032747;28;20048;-69
2021/12/20 13:23:48;;;;;;;8.48;1.60;;;;;;;;;;5033327;28;20048;-70
2021/12/20 13:26:17;;;;;;;9.18;1.42;;;;;;;;;;5015552;28;20092;-69
2021/12/20 13:28:44;;;;;;;5.32;0.98;;;;;;;;;;5032263;28;20017;-70
2021/12/20 13:31:16;;;;;;;4.90;1.00;;;;;;;;;;5032800;28;20053;-69
2021/12/20 13:33:45;;;;;;;11.45;1.58;;;;;;;;;;5030865;28;20017;-69
2021/12/20 13:36:12;;;;;;;10.23;1.30;;;;;;;;;;5016050;28;20018;-70
2021/12/20 13:38:38;;;;;;;7.03;1.00;;;;;;;;;;5031481;28;20107;-69
2021/12/20 13:41:05;;;;;;;7.03;1.08;;;;;;;;;;5019481;28;20036;-69
2021/12/20 13:43:37;;;;;;;3.20;0.90;;;;;;;;;;5014372;28;20037;-69
2021/12/20 13:46:11;;;;;;;4.72;1.67;;;;;;;;;;5036660;28;20056;-70
2021/12/20 13:48:44;;;;;;;4.90;1.20;;;;;;;;;;5038697;28;20021;-69
2021/12/20 13:51:10;;;;;;;6.85;0.98;;;;;;;;;;5032823;28;20048;-69
2021/12/20 13:53:39;;;;;;;4.88;1.48;;;;;;;;;;5014523;28;20544;-69
2021/12/20 13:56:09;;;;;;;6.88;1.02;;;;;;;;;;5032712;28;20018;-69
2021/12/20 13:58:37;;;;;;;4.28;0.70;;;;;;;;;;5000161;28;20049;-69
2021/12/20 14:01:02;;;;;;;6.75;1.02;;;;;;;;;;5038491;28;20075;-69
2021/12/20 14:03:28;;;;;;;4.70;0.88;;;;;;;;;;5044560;28;20044;-69
2021/12/20 14:05:53;;;;;;;5.50;0.80;;;;;;;;;;5037382;28;20096;-69
2021/12/20 14:08:21;;;;;;;6.68;1.00;;;;;;;;;;5039071;28;20431;-68
2021/12/20 14:10:47;;;;;;;2.85;0.80;;;;;;;;;;5032205;28;20033;-69
2021/12/20 14:13:16;;;;;;;9.93;0.90;;;;;;;;;;5032345;28;20026;-69
2021/12/20 14:15:44;;;;;;;3.30;0.80;;;;;;;;;;5032143;28;20075;-68
2021/12/20 14:18:12;;;;;;;6.30;0.93;;;;;;;;;;5014600;28;20374;-69
2021/12/20 14:20:42;;;;;;;4.50;1.33;;;;;;;;;;5014318;28;20108;-69
2021/12/20 14:23:09;;;;;;;6.30;0.98;;;;;;;;;;5014116;28;20017;-69
2021/12/20 14:25:35;;;;;;;4.90;0.90;;;;;;;;;;5031867;28;20053;-69
2021/12/20 14:28:23;;;;;;;2.65;0.85;;;;;;;;;;5027891;28;20105;-70
2021/12/20 14:30:52;;;;;;;2.75;0.80;;;;;;;;;;5031365;28;20021;-70
2021/12/20 14:33:26;;;;;;;6.00;0.80;;;;;;;;;;5031353;28;20477;-69
2021/12/20 14:35:54;;;;;;;5.32;1.00;;;;;;;;;;5015439;28;20622;-69
2021/12/20 14:38:25;;;;;;;4.47;0.80;;;;;;;;;;5031227;28;20033;-68
2021/12/20 14:40:51;;;;;;;5.22;0.93;;;;;;;;;;5031478;28;20104;-69
2021/12/20 14:43:17;;;;;;;8.30;1.10;;;;;;;;;;5031394;28;20029;-69